Auburn, CA

3:23 PM PDT on August 29, 2015 (GMT -0700)
American River Canyon, Auburn, CA | | Change Station
CLOSE
Current Station
Personal Weather Station
Location: Auburn, CA
Elevation: 1441 ft
Nearby Weather Stations

Elev 1441 ft 38.88 °N, 121.07 °W | Updated 9 minutes ago

Partly Cloudy
Partly Cloudy
80.9 °F
Feels Like 82 °F
N
0.0
Wind Variable Wind from NNW
Gusts 6.0 mph

Today
High -- | Low -- °F
--% Chance of Precip.
Yesterday
High -- | Low -- °F
Precip. -- in
6:30 AM 7:39 PM
Full, 100% visible
Pressure 30.01 in
Visibility 10.0 miles
Clouds Scattered Clouds 3600 ft
Heat Index 82 °F
Dew Point 62 °F
Humidity 52%
Rainfall 0.00 in
Snow Depth Not available.
UV 6 out of 12
Pollen 8.20 out of 12
Air Quality Not available.
Flu Activity Not available.
METAR KAUN 292215Z AUTO 22006KT 030V040 10SM SCT036 27/16 A3001 RMK AO1
Pressure 30.01 in
Visibility 10.0 miles
Clouds Scattered Clouds 3600 ft
Heat Index 82 °F
Dew Point 62 °F
Humidity 52%
Rainfall 0.00 in
Snow Depth Not available.
UV 6 out of 12
Pollen 8.20 out of 12
Air Quality Not available.
Flu Activity Not available.
METAR KAUN 292215Z AUTO 22006KT 030V040 10SM SCT036 27/16 A3001 RMK AO1

10-Day Weather Forecast

×

Almanac

Astronomy

Aug. 29, 2015 Rise Set
Actual Time
Civil Twilight
Nautical Twilight
Astronomical Twilight
Moon
Length of Visible Light
Length of Day
Tomorrow will be .
, % of the Moon is Illuminated

Today's Extremes

State Highs State Lows

Community

WunderPhotos

Upload Photos

1,850,777 photos uploaded!

WunderBlogs® & News

Nearby

Air Quality

  Air Quality AQ Index Pollutant
Not available.

Snow Depth

Station Depth Elevation

Earthquake Activity

City Distance Mag. Time & Date
Minimum magnitude displayed is 2.5.

Coastal Water Temperatures

Place Temperature

Stations

Nearby Weather Stations

Station Location Temp. Windchill Dew Point Humidity Wind Precip. Elev Updated Type